createdAt,value
2023-05-05T00:02:16.452Z,7.50
2023-05-05T00:04:44.373Z,8.30
2023-05-05T00:07:12.163Z,8.20
2023-05-05T00:09:40.014Z,8.10
2023-05-05T00:12:08.055Z,8.00
2023-05-05T00:14:36.158Z,7.80
2023-05-05T00:17:04.181Z,8.30
2023-05-05T00:19:32.327Z,7.60
2023-05-05T00:22:00.394Z,7.20
2023-05-05T00:24:28.083Z,7.90
2023-05-05T00:26:55.960Z,7.70
2023-05-05T00:29:23.867Z,8.30
2023-05-05T00:31:52.577Z,8.30
2023-05-05T00:34:21.064Z,8.50
2023-05-05T00:36:49.651Z,8.50
2023-05-05T00:39:17.714Z,8.70
2023-05-05T00:41:45.706Z,7.70
2023-05-05T00:44:13.691Z,8.40
2023-05-05T00:46:41.937Z,8.40
2023-05-05T00:49:10.234Z,8.00
2023-05-05T00:51:38.276Z,8.40
2023-05-05T00:54:06.170Z,8.70
2023-05-05T00:56:34.755Z,8.70
2023-05-05T00:59:02.741Z,8.60
2023-05-05T01:01:30.731Z,8.30
2023-05-05T01:03:58.788Z,9.10
2023-05-05T01:06:54.165Z,9.70
2023-05-05T01:09:46.212Z,10.00
2023-05-05T01:12:32.557Z,9.90
2023-05-05T01:15:06.434Z,9.90
2023-05-05T01:17:42.659Z,9.30
2023-05-05T01:20:25.612Z,9.90
2023-05-05T01:23:00.501Z,10.20
2023-05-05T01:26:05.704Z,11.10
2023-05-05T01:29:03.033Z,10.20
2023-05-05T01:31:53.720Z,10.30
2023-05-05T01:34:28.167Z,10.80
2023-05-05T01:37:43.369Z,11.30
2023-05-05T01:40:13.670Z,11.00
2023-05-05T01:42:43.546Z,10.50
2023-05-05T01:45:12.797Z,10.50
2023-05-05T01:47:44.046Z,10.40
2023-05-05T01:50:13.783Z,11.00
2023-05-05T01:52:42.670Z,11.70
2023-05-05T01:55:13.003Z,11.80
2023-05-05T01:57:42.967Z,12.80
2023-05-05T02:00:11.908Z,12.70
2023-05-05T02:02:46.466Z,13.70
2023-05-05T02:05:16.483Z,14.20
2023-05-05T02:07:46.095Z,13.70
2023-05-05T02:10:15.174Z,14.00
2023-05-05T02:12:47.262Z,16.20
2023-05-05T02:15:16.614Z,15.30
2023-05-05T02:17:46.426Z,15.40
2023-05-05T02:20:15.578Z,15.00
2023-05-05T02:22:44.085Z,16.20
2023-05-05T02:25:12.050Z,15.90
2023-05-05T02:27:44.289Z,15.10
2023-05-05T02:30:15.869Z,28.60
2023-05-05T02:32:56.880Z,40.50
2023-05-05T02:35:37.303Z,27.10
2023-05-05T02:38:09.792Z,16.80
2023-05-05T02:40:43.535Z,35.70
2023-05-05T02:43:16.821Z,33.10
2023-05-05T02:45:45.114Z,20.40
2023-05-05T02:48:14.164Z,12.30
2023-05-05T02:50:42.688Z,11.90
2023-05-05T02:53:27.483Z,11.20
2023-05-05T02:56:12.995Z,11.60
2023-05-05T02:58:54.457Z,11.50
2023-05-05T03:01:46.753Z,11.50
2023-05-05T03:04:17.544Z,10.80
2023-05-05T03:06:56.606Z,10.90
2023-05-05T03:09:25.524Z,10.60
2023-05-05T03:12:03.986Z,11.00
2023-05-05T03:14:41.504Z,10.60
2023-05-05T03:17:12.545Z,10.60
2023-05-05T03:19:44.651Z,10.20
2023-05-05T03:22:12.899Z,10.10
2023-05-05T03:24:43.513Z,11.20
2023-05-05T03:27:11.702Z,10.50
2023-05-05T03:29:40.534Z,9.70
2023-05-05T03:32:12.132Z,9.80
2023-05-05T03:34:40.611Z,10.00
2023-05-05T03:37:08.423Z,9.80
2023-05-05T03:39:37.620Z,10.50
2023-05-05T03:42:06.076Z,10.50
2023-05-05T03:44:34.378Z,10.40
2023-05-05T03:47:02.271Z,10.10
2023-05-05T03:49:30.701Z,10.80
2023-05-05T03:51:59.081Z,10.80
2023-05-05T03:54:27.060Z,11.30
2023-05-05T03:56:56.313Z,10.90
2023-05-05T03:59:24.065Z,11.80
2023-05-05T04:01:51.934Z,11.50
2023-05-05T04:04:20.013Z,11.90
2023-05-05T04:06:48.704Z,12.40
2023-05-05T04:09:16.535Z,11.70
2023-05-05T04:11:44.588Z,12.60
2023-05-05T04:14:12.648Z,14.40
2023-05-05T04:16:40.707Z,19.00
2023-05-05T04:19:09.252Z,20.00
2023-05-05T04:21:37.236Z,21.50
2023-05-05T04:24:05.581Z,16.60
2023-05-05T04:26:33.511Z,14.00
2023-05-05T04:29:01.419Z,13.90
2023-05-05T04:31:29.499Z,12.90
2023-05-05T04:33:57.517Z,14.60
2023-05-05T04:36:25.403Z,13.50
2023-05-05T04:38:53.395Z,13.70
2023-05-05T04:41:21.405Z,14.60
2023-05-05T04:43:49.690Z,15.00
2023-05-05T04:46:17.547Z,14.10
2023-05-05T04:48:46.101Z,14.70
2023-05-05T04:51:14.318Z,13.50
2023-05-05T04:53:42.254Z,13.80
2023-05-05T04:56:10.248Z,13.60
2023-05-05T04:58:38.123Z,12.90
2023-05-05T05:01:06.905Z,12.90
2023-05-05T05:03:34.998Z,14.10
2023-05-05T05:06:03.136Z,13.60
2023-05-05T05:08:31.147Z,13.20
2023-05-05T05:11:00.826Z,13.30
2023-05-05T05:13:28.777Z,13.00
2023-05-05T05:15:56.707Z,13.40
2023-05-05T05:18:24.694Z,13.70
2023-05-05T05:20:52.900Z,15.20
2023-05-05T05:23:24.352Z,14.80
2023-05-05T05:25:52.446Z,13.90
2023-05-05T05:28:21.450Z,14.20
2023-05-05T05:30:52.938Z,14.30
2023-05-05T05:33:21.465Z,13.90
2023-05-05T05:35:50.040Z,13.90
2023-05-05T05:38:18.735Z,14.10
2023-05-05T05:40:47.074Z,14.80
2023-05-05T05:43:15.325Z,14.70
2023-05-05T05:45:45.877Z,13.60
2023-05-05T05:50:41.919Z,13.70
2023-05-05T05:53:10.296Z,13.20
2023-05-05T05:55:38.293Z,13.80
2023-05-05T05:58:06.154Z,13.30
2023-05-05T06:00:34.208Z,13.60
2023-05-05T06:03:04.636Z,12.60
2023-05-05T06:05:34.442Z,12.40
2023-05-05T06:08:02.524Z,12.80
2023-05-05T06:10:31.162Z,12.20
2023-05-05T06:13:03.017Z,12.80
2023-05-05T06:15:31.365Z,11.30
2023-05-05T06:18:01.402Z,11.60
2023-05-05T06:20:29.526Z,11.00
2023-05-05T06:22:57.524Z,10.90
2023-05-05T06:25:26.879Z,10.80
2023-05-05T06:27:54.822Z,11.20
2023-05-05T06:30:22.803Z,11.30
2023-05-05T06:32:50.807Z,10.60
2023-05-05T06:35:18.649Z,10.20
2023-05-05T06:37:46.487Z,10.40
2023-05-05T06:40:14.439Z,10.90
2023-05-05T06:42:42.378Z,11.20
2023-05-05T06:45:12.558Z,10.80
2023-05-05T06:47:41.800Z,10.60
2023-05-05T06:50:10.317Z,10.90
2023-05-05T06:52:38.402Z,10.60
2023-05-05T06:55:06.913Z,10.60
2023-05-05T06:57:34.716Z,11.30
2023-05-05T07:00:07.474Z,10.30
2023-05-05T07:02:35.896Z,9.80
2023-05-05T07:05:04.353Z,11.00
2023-05-05T07:07:32.619Z,10.70
2023-05-05T07:10:00.900Z,10.60
2023-05-05T07:12:33.222Z,10.60
2023-05-05T07:15:09.428Z,10.10
2023-05-05T07:17:43.730Z,9.70
2023-05-05T07:20:12.205Z,10.80
2023-05-05T07:22:40.051Z,9.50
2023-05-05T07:25:08.769Z,9.40
2023-05-05T07:27:37.400Z,9.00
2023-05-05T07:30:11.169Z,9.90
2023-05-05T07:32:41.426Z,8.60
2023-05-05T07:35:09.450Z,9.00
2023-05-05T07:37:37.437Z,8.90
2023-05-05T07:40:06.153Z,8.90
2023-05-05T07:42:34.256Z,9.70
2023-05-05T07:45:02.241Z,8.70
2023-05-05T07:47:30.311Z,8.60
2023-05-05T07:49:58.685Z,8.80
2023-05-05T07:52:43.371Z,8.50
2023-05-05T07:55:12.825Z,8.40
2023-05-05T07:57:40.932Z,9.10
2023-05-05T08:00:10.254Z,8.70
2023-05-05T08:02:41.578Z,9.30
2023-05-05T08:05:10.076Z,10.70
2023-05-05T08:07:41.217Z,8.60
2023-05-05T08:10:11.623Z,7.20
2023-05-05T08:12:40.063Z,7.10
2023-05-05T08:15:08.966Z,6.10
2023-05-05T08:17:48.742Z,7.20
2023-05-05T08:20:18.860Z,7.80
2023-05-05T08:22:47.374Z,7.10
2023-05-05T08:25:15.434Z,7.30
2023-05-05T08:27:43.515Z,7.70
2023-05-05T08:30:12.008Z,8.00
2023-05-05T08:32:40.166Z,7.10
2023-05-05T08:35:08.674Z,7.70
2023-05-05T08:37:36.870Z,7.10
2023-05-05T08:40:05.731Z,6.80
2023-05-05T08:42:38.428Z,8.00
2023-05-05T08:45:09.032Z,7.30
2023-05-05T08:47:38.480Z,8.00
2023-05-05T08:50:10.108Z,8.60
2023-05-05T08:52:40.586Z,8.30
2023-05-05T08:55:08.544Z,7.80
2023-05-05T08:57:44.173Z,8.00
2023-05-05T09:00:13.416Z,8.20
2023-05-05T09:02:43.147Z,7.70
2023-05-05T09:05:11.441Z,7.20
2023-05-05T09:07:41.461Z,7.20
2023-05-05T09:10:11.461Z,7.60
2023-05-05T09:12:40.485Z,7.50
2023-05-05T09:15:10.547Z,7.50
2023-05-05T09:17:39.908Z,7.50
2023-05-05T09:20:10.474Z,7.70
2023-05-05T09:22:43.652Z,7.70
2023-05-05T09:25:14.426Z,7.50
2023-05-05T09:27:49.651Z,6.80
2023-05-05T09:30:23.828Z,6.70
2023-05-05T09:32:55.471Z,6.20
2023-05-05T09:35:23.952Z,6.70
2023-05-05T09:37:51.937Z,5.70
2023-05-05T09:40:21.345Z,5.40
2023-05-05T09:43:02.172Z,6.60
2023-05-05T09:45:30.237Z,6.30
2023-05-05T09:48:00.120Z,5.50
2023-05-05T09:53:01.548Z,5.30
2023-05-05T09:55:33.479Z,5.20
2023-05-05T09:58:33.933Z,4.80
2023-05-05T10:01:01.712Z,5.40
2023-05-05T10:03:29.606Z,5.60
2023-05-05T10:05:59.688Z,5.70
2023-05-05T10:08:30.672Z,5.50
2023-05-05T10:11:00.900Z,5.60
2023-05-05T10:13:29.993Z,5.50
2023-05-05T10:15:58.081Z,5.20
2023-05-05T10:18:28.248Z,4.90
2023-05-05T10:20:57.657Z,5.20
2023-05-05T10:23:34.890Z,5.40
2023-05-05T10:26:06.350Z,5.30
2023-05-05T10:28:40.141Z,5.10
2023-05-05T10:31:25.017Z,5.50
2023-05-05T10:34:03.406Z,5.50
2023-05-05T10:36:31.864Z,5.80
2023-05-05T10:39:00.653Z,5.50
2023-05-05T10:41:28.773Z,5.40
2023-05-05T10:43:57.677Z,5.60
2023-05-05T10:46:27.020Z,5.30
2023-05-05T10:49:28.629Z,4.80
2023-05-05T10:52:10.052Z,5.40
2023-05-05T10:55:09.395Z,4.50
2023-05-05T10:57:41.693Z,4.90
2023-05-05T11:00:10.296Z,5.40
2023-05-05T11:02:38.432Z,4.70
2023-05-05T11:05:18.273Z,4.90
2023-05-05T11:07:49.882Z,4.70
2023-05-05T11:10:23.409Z,5.20
2023-05-05T11:12:54.398Z,5.30
2023-05-05T11:15:22.371Z,4.90
2023-05-05T11:17:51.087Z,5.10
2023-05-05T11:20:39.939Z,5.20
2023-05-05T11:23:08.049Z,5.30
2023-05-05T11:25:42.024Z,5.00
2023-05-05T11:28:12.809Z,5.00
2023-05-05T11:30:59.361Z,7.60
2023-05-05T11:33:37.633Z,5.30
2023-05-05T11:36:08.870Z,5.50
2023-05-05T11:38:52.304Z,5.00
2023-05-05T11:41:50.963Z,4.90
2023-05-05T11:44:20.289Z,5.00
2023-05-05T11:46:51.190Z,5.50
2023-05-05T11:49:32.584Z,5.10
2023-05-05T11:52:12.412Z,4.80
2023-05-05T11:54:49.001Z,4.40
2023-05-05T11:57:21.098Z,4.40
2023-05-05T11:59:55.005Z,4.40
2023-05-05T12:02:23.857Z,4.40
2023-05-05T12:04:52.695Z,4.60
2023-05-05T12:07:23.550Z,4.70
2023-05-05T12:09:52.187Z,4.70
2023-05-05T12:12:20.456Z,4.70
2023-05-05T12:14:52.398Z,4.70
2023-05-05T12:17:22.146Z,4.20
2023-05-05T12:19:54.510Z,4.40
2023-05-05T12:22:26.759Z,4.40
2023-05-05T12:25:01.134Z,4.70
2023-05-05T12:27:29.746Z,4.50
2023-05-05T12:30:11.670Z,4.30
2023-05-05T12:32:40.081Z,3.90
2023-05-05T12:35:09.619Z,4.00
2023-05-05T12:37:38.089Z,4.50
2023-05-05T12:40:07.303Z,4.20
2023-05-05T12:42:40.020Z,4.30
2023-05-05T12:45:17.441Z,4.40
2023-05-05T12:47:45.479Z,3.90
2023-05-05T12:50:13.433Z,3.50
2023-05-05T12:52:45.264Z,3.60
2023-05-05T12:55:13.322Z,3.70
2023-05-05T12:58:01.413Z,3.30
2023-05-05T13:00:29.299Z,3.50
2023-05-05T13:02:58.096Z,5.10
2023-05-05T13:05:31.584Z,3.80
2023-05-05T13:07:59.802Z,4.30
2023-05-05T13:10:31.461Z,4.30
2023-05-05T13:12:59.599Z,3.90
2023-05-05T13:15:27.928Z,3.80
2023-05-05T13:18:02.803Z,3.60
2023-05-05T13:20:30.728Z,3.10
2023-05-05T13:22:58.578Z,3.10
2023-05-05T13:25:26.840Z,3.90
2023-05-05T13:27:54.623Z,4.00
2023-05-05T13:30:22.680Z,2.80
2023-05-05T13:32:50.626Z,2.90
2023-05-05T13:35:18.440Z,3.30
2023-05-05T13:37:47.562Z,2.80
2023-05-05T13:40:15.553Z,3.60
2023-05-05T13:42:43.415Z,3.50
2023-05-05T13:45:12.195Z,3.50
2023-05-05T13:47:41.957Z,3.30
2023-05-05T13:50:10.335Z,3.50
2023-05-05T13:52:38.601Z,3.50
2023-05-05T13:55:07.324Z,3.40
2023-05-05T13:57:40.554Z,3.40
2023-05-05T14:00:09.093Z,3.30
2023-05-05T14:02:37.198Z,3.20
2023-05-05T14:05:05.456Z,3.70
2023-05-05T14:07:33.290Z,3.40
2023-05-05T14:10:01.181Z,3.30
2023-05-05T14:12:29.125Z,3.40
2023-05-05T14:14:56.977Z,3.60
2023-05-05T14:17:25.558Z,3.40
2023-05-05T14:19:53.393Z,3.50
2023-05-05T14:22:21.375Z,3.50
2023-05-05T14:24:49.380Z,3.40
2023-05-05T14:27:17.234Z,3.40
2023-05-05T14:29:44.977Z,3.60
2023-05-05T14:32:12.831Z,3.40
2023-05-05T14:34:40.630Z,4.30
2023-05-05T14:37:08.452Z,3.50
2023-05-05T14:39:36.314Z,3.00
2023-05-05T14:42:04.462Z,3.80
2023-05-05T14:44:32.281Z,3.30
2023-05-05T14:47:00.211Z,3.50
2023-05-05T14:49:28.098Z,3.20
2023-05-05T14:51:56.862Z,4.00
2023-05-05T14:54:28.790Z,3.30
2023-05-05T14:56:56.917Z,3.60
2023-05-05T14:59:24.937Z,3.80
2023-05-05T15:01:53.056Z,3.00
2023-05-05T15:04:21.019Z,3.50
2023-05-05T15:06:48.807Z,3.20
2023-05-05T15:09:18.171Z,2.90
2023-05-05T15:11:46.116Z,3.40
2023-05-05T15:14:13.973Z,2.90
2023-05-05T15:16:41.949Z,3.50
2023-05-05T15:19:09.909Z,3.10
2023-05-05T15:21:37.898Z,3.30
2023-05-05T15:24:06.212Z,3.40
2023-05-05T15:26:34.017Z,3.60
2023-05-05T15:29:01.882Z,3.40
2023-05-05T15:31:29.723Z,3.70
2023-05-05T15:33:57.619Z,3.10
2023-05-05T15:36:25.872Z,4.00
2023-05-05T15:38:53.722Z,3.30
2023-05-05T15:41:21.588Z,3.30
2023-05-05T15:43:49.344Z,3.20
2023-05-05T15:46:17.265Z,3.30
2023-05-05T15:48:45.415Z,3.30
2023-05-05T15:51:13.315Z,3.10
2023-05-05T15:53:41.592Z,3.40
2023-05-05T15:56:11.620Z,3.20
2023-05-05T15:58:39.374Z,3.10
2023-05-05T16:01:07.326Z,3.50
2023-05-05T16:03:35.408Z,3.50
2023-05-05T16:06:03.594Z,3.90
2023-05-05T16:08:32.087Z,3.40
2023-05-05T16:10:59.907Z,3.20
2023-05-05T16:13:27.877Z,3.20
2023-05-05T16:15:56.089Z,4.40
2023-05-05T16:18:24.017Z,3.50
2023-05-05T16:20:51.925Z,3.40
2023-05-05T16:23:19.940Z,3.30
2023-05-05T16:25:47.909Z,8.90
2023-05-05T16:28:15.907Z,4.50
2023-05-05T16:30:43.644Z,4.20
2023-05-05T16:33:11.677Z,3.80
2023-05-05T16:35:39.583Z,3.80
2023-05-05T16:38:07.540Z,3.90
2023-05-05T16:40:37.720Z,3.50
2023-05-05T16:43:06.240Z,4.20
2023-05-05T16:45:34.116Z,3.60
2023-05-05T16:48:01.998Z,3.40
2023-05-05T16:50:29.956Z,4.30
2023-05-05T16:52:57.882Z,3.80
2023-05-05T16:55:25.994Z,4.20
2023-05-05T16:57:53.859Z,4.40
2023-05-05T17:00:21.705Z,3.80
2023-05-05T17:02:50.063Z,4.70
2023-05-05T17:05:18.077Z,4.30
2023-05-05T17:07:48.118Z,3.80
2023-05-05T17:10:16.309Z,4.00
2023-05-05T17:12:44.217Z,5.00
2023-05-05T17:15:12.049Z,4.70
2023-05-05T17:17:41.547Z,4.40
2023-05-05T17:20:11.308Z,4.10
2023-05-05T17:22:39.222Z,3.80
2023-05-05T17:25:07.498Z,4.30
2023-05-05T17:27:35.513Z,4.90
2023-05-05T17:30:04.022Z,4.20
2023-05-05T17:32:31.922Z,4.50
2023-05-05T17:34:59.955Z,5.10
2023-05-05T17:37:28.255Z,5.00
2023-05-05T17:39:56.105Z,5.10
2023-05-05T17:42:26.968Z,6.00
2023-05-05T17:44:54.816Z,5.60
2023-05-05T17:47:24.187Z,6.70
2023-05-05T17:49:56.308Z,5.70
2023-05-05T17:52:27.526Z,5.20
2023-05-05T17:54:55.449Z,5.50
2023-05-05T17:57:23.446Z,5.40
2023-05-05T17:59:53.281Z,5.40
2023-05-05T18:02:21.419Z,5.70
2023-05-05T18:04:49.307Z,5.20
2023-05-05T18:07:17.245Z,5.40
2023-05-05T18:09:45.219Z,5.40
2023-05-05T18:12:13.014Z,6.40
2023-05-05T18:14:40.995Z,7.40
2023-05-05T18:17:08.874Z,7.20
2023-05-05T18:19:37.038Z,7.20
2023-05-05T18:22:05.194Z,7.10
2023-05-05T18:24:32.984Z,7.30
2023-05-05T18:27:00.897Z,8.90
2023-05-05T18:29:28.922Z,9.20
2023-05-05T18:31:59.058Z,16.90
2023-05-05T18:34:27.509Z,17.50
2023-05-05T18:36:55.270Z,16.70
2023-05-05T18:39:23.752Z,17.30
2023-05-05T18:41:51.817Z,16.60
2023-05-05T18:44:20.152Z,23.40
2023-05-05T18:46:49.389Z,22.50
2023-05-05T18:49:17.688Z,18.70
2023-05-05T18:51:45.784Z,16.50
2023-05-05T18:54:13.732Z,15.30
2023-05-05T18:56:42.290Z,14.80
2023-05-05T18:59:10.170Z,17.40
2023-05-05T19:01:38.093Z,14.60
2023-05-05T19:04:15.581Z,13.90
2023-05-05T19:06:52.443Z,14.00
2023-05-05T19:09:20.570Z,14.60
2023-05-05T19:11:48.572Z,14.40
2023-05-05T19:14:17.624Z,14.50
2023-05-05T19:16:45.709Z,14.20
2023-05-05T19:19:13.741Z,12.60
2023-05-05T19:21:41.741Z,12.60
2023-05-05T19:24:09.792Z,13.70
2023-05-05T19:26:37.916Z,13.70
2023-05-05T19:29:06.066Z,15.70
2023-05-05T19:31:34.069Z,16.10
2023-05-05T19:34:03.941Z,16.00
2023-05-05T19:36:32.407Z,16.40
2023-05-05T19:39:01.893Z,15.80
2023-05-05T19:41:31.892Z,16.40
2023-05-05T19:44:00.213Z,16.00
2023-05-05T19:46:28.166Z,16.10
2023-05-05T19:48:56.218Z,16.40
2023-05-05T19:51:24.168Z,14.40
2023-05-05T19:53:55.111Z,14.10
2023-05-05T19:56:24.179Z,14.90
2023-05-05T19:59:00.650Z,14.90
2023-05-05T20:01:29.430Z,14.60
2023-05-05T20:03:57.611Z,15.10
2023-05-05T20:06:27.123Z,16.10
2023-05-05T20:08:55.522Z,16.80
2023-05-05T20:11:23.423Z,16.50
2023-05-05T20:13:51.856Z,18.90
2023-05-05T20:16:21.498Z,18.50
2023-05-05T20:18:50.432Z,16.90
2023-05-05T20:21:18.614Z,16.70
2023-05-05T20:23:46.759Z,14.70
2023-05-05T20:26:14.583Z,12.80
2023-05-05T20:28:45.101Z,12.10
2023-05-05T20:31:14.402Z,11.60
2023-05-05T20:33:42.528Z,12.00
2023-05-05T20:36:11.140Z,11.50
2023-05-05T20:38:39.005Z,12.30
2023-05-05T20:41:06.975Z,12.10
2023-05-05T20:43:36.360Z,10.90
2023-05-05T20:46:04.371Z,11.40
2023-05-05T20:48:32.199Z,12.30
2023-05-05T20:51:03.641Z,11.10
2023-05-05T20:53:32.236Z,11.00
2023-05-05T20:56:00.152Z,12.20
2023-05-05T20:58:28.109Z,12.10
2023-05-05T21:00:56.129Z,11.90
2023-05-05T21:03:24.143Z,11.80
2023-05-05T21:05:52.126Z,12.40
2023-05-05T21:08:19.960Z,12.70
2023-05-05T21:10:47.979Z,11.90
2023-05-05T21:13:16.263Z,13.10
2023-05-05T21:15:44.254Z,12.60
2023-05-05T21:18:12.328Z,14.10
2023-05-05T21:20:40.326Z,13.60
2023-05-05T21:23:08.257Z,12.80
2023-05-05T21:25:37.512Z,12.00
2023-05-05T21:28:05.469Z,12.10
2023-05-05T21:30:33.448Z,12.50
2023-05-05T21:33:01.299Z,11.60
2023-05-05T21:35:29.313Z,12.30
2023-05-05T21:37:57.244Z,11.60
2023-05-05T21:40:26.347Z,11.30
2023-05-05T21:42:54.272Z,10.70
2023-05-05T21:45:22.290Z,11.60
2023-05-05T21:47:50.862Z,11.40
2023-05-05T21:50:18.950Z,11.20
2023-05-05T21:52:47.065Z,10.70
2023-05-05T21:55:15.087Z,10.60
2023-05-05T21:57:43.197Z,10.50
2023-05-05T22:00:16.589Z,9.80
2023-05-05T22:02:45.153Z,10.40
2023-05-05T22:05:13.217Z,9.80
2023-05-05T22:07:41.103Z,10.10
2023-05-05T22:10:09.742Z,10.30
2023-05-05T22:12:37.938Z,9.90
2023-05-05T22:15:06.610Z,9.10
2023-05-05T22:17:34.507Z,9.30
2023-05-05T22:20:03.844Z,9.30
2023-05-05T22:22:31.902Z,8.40
2023-05-05T22:24:59.749Z,8.80
2023-05-05T22:27:27.612Z,8.90
2023-05-05T22:29:55.499Z,8.80
2023-05-05T22:32:23.276Z,9.30
2023-05-05T22:34:51.177Z,8.60
2023-05-05T22:37:19.101Z,8.40
2023-05-05T22:39:46.968Z,8.10
2023-05-05T22:42:14.776Z,8.60
2023-05-05T22:44:42.605Z,8.60
2023-05-05T22:47:10.561Z,7.80
2023-05-05T22:49:38.667Z,8.30
2023-05-05T22:52:06.621Z,8.70
2023-05-05T22:54:34.424Z,8.30
2023-05-05T22:57:02.362Z,8.10
2023-05-05T22:59:30.230Z,8.60
2023-05-05T23:01:58.319Z,8.40
2023-05-05T23:04:26.347Z,8.70
2023-05-05T23:06:54.325Z,9.00
2023-05-05T23:09:22.177Z,8.20
2023-05-05T23:11:50.016Z,7.90
2023-05-05T23:14:19.412Z,8.40
2023-05-05T23:16:47.331Z,7.50
2023-05-05T23:19:15.242Z,7.70
2023-05-05T23:21:52.627Z,8.50
2023-05-05T23:24:21.925Z,8.50
2023-05-05T23:26:49.841Z,8.00
2023-05-05T23:29:18.389Z,9.30
2023-05-05T23:31:46.975Z,8.00
2023-05-05T23:34:14.927Z,7.00
2023-05-05T23:36:42.963Z,7.50
2023-05-05T23:39:11.081Z,7.10
2023-05-05T23:41:38.972Z,7.40
2023-05-05T23:44:07.124Z,7.10
2023-05-05T23:46:35.054Z,7.60
2023-05-05T23:49:02.929Z,6.90
2023-05-05T23:51:31.120Z,7.10
2023-05-05T23:53:59.007Z,6.90
2023-05-05T23:56:26.875Z,7.10
2023-05-05T23:58:54.725Z,6.60
